Time;durP1;ratioP1;P1;durP2;ratioP2;P2;SDS_P1;SDS_P2;PMS_P1;PMS_P2;Temp;Humidity;BMP_temperature;BMP_pressure;BME280_temperature;BME280_humidity;BME280_pressure;Samples;Min_cycle;Max_cycle;Signal;HPM_P1;HPM_P2
2022/05/13 00:01:22;;;;;;;26.42;10.65;;;;;;;15.11;73.09;99393.60;1750629;82;21032;-83
2022/05/13 00:03:49;;;;;;;21.12;7.92;;;;;;;15.07;72.88;99412.42;1750582;82;21082;-83
2022/05/13 00:06:15;;;;;;;25.62;6.65;;;;;;;15.01;72.22;99410.95;1750338;81;21003;-83
2022/05/13 00:08:41;;;;;;;19.30;7.47;;;;;;;14.95;71.41;99415.28;1750569;82;21020;-84
2022/05/13 00:11:08;;;;;;;14.73;6.17;;;;;;;14.86;71.06;99420.13;1751182;81;21562;-84
2022/05/13 00:13:35;;;;;;;20.75;6.42;;;;;;;14.82;70.72;99426.52;1723821;83;21109;-77
2022/05/13 00:16:04;;;;;;;24.27;6.28;;;;;;;14.78;70.52;99418.36;1724449;83;21768;-81
2022/05/13 00:18:31;;;;;;;19.17;6.70;;;;;;;14.72;70.78;99425.30;1723798;83;21047;-83
2022/05/13 00:20:59;;;;;;;21.68;6.72;;;;;;;14.67;70.79;99437.92;1723835;83;21216;-81
2022/05/13 00:23:25;;;;;;;24.02;6.67;;;;;;;14.63;70.62;99435.06;1721535;83;21071;-84
2022/05/13 00:25:52;;;;;;;20.68;6.80;;;;;;;14.57;70.51;99436.67;1723694;83;21049;-81
2022/05/13 00:28:19;;;;;;;19.35;6.90;;;;;;;14.48;70.46;99434.04;1723682;83;21557;-82
2022/05/13 00:30:48;;;;;;;23.70;6.60;;;;;;;14.42;70.58;99437.84;1723797;83;21118;-81
2022/05/13 00:33:15;;;;;;;23.27;6.25;;;;;;;14.35;70.34;99441.75;1724033;83;21557;-81
2022/05/13 00:35:42;;;;;;;24.15;6.33;;;;;;;14.26;69.89;99439.59;1723854;83;21066;-83
2022/05/13 00:38:08;;;;;;;19.62;6.35;;;;;;;14.18;69.29;99439.97;1723786;83;21129;-83
2022/05/13 00:40:35;;;;;;;15.93;6.10;;;;;;;14.06;69.18;99448.53;1724070;83;21110;-84
2022/05/13 00:43:05;;;;;;;16.97;6.15;;;;;;;13.96;68.83;99442.84;1725310;83;20997;-84
2022/05/13 00:45:32;;;;;;;22.25;5.42;;;;;;;13.89;69.07;99440.12;1727612;83;21063;-83
2022/05/13 00:47:58;;;;;;;17.12;6.20;;;;;;;13.86;68.93;99442.91;1730716;82;21151;-83
2022/05/13 00:50:25;;;;;;;15.58;5.87;;;;;;;13.83;68.90;99454.48;1757705;81;21082;-83
2022/05/13 00:52:52;;;;;;;14.45;5.00;;;;;;;13.76;68.66;99454.39;1757388;81;21282;-77
2022/05/13 00:55:25;;;;;;;14.70;5.17;;;;;;;13.66;68.42;99464.55;1757570;81;22004;-77
2022/05/13 00:57:52;;;;;;;12.37;5.55;;;;;;;13.58;68.27;99454.81;1757320;81;21055;-77
2022/05/13 01:00:19;;;;;;;17.10;5.22;;;;;;;13.49;68.45;99455.27;1757558;81;21533;-77
2022/05/13 01:02:46;;;;;;;16.55;5.55;;;;;;;13.44;68.77;99454.63;1757497;81;21106;-77
2022/05/13 01:05:14;;;;;;;16.37;4.97;;;;;;;13.36;68.34;99463.78;1757353;81;21099;-78
2022/05/13 01:07:41;;;;;;;13.30;5.60;;;;;;;13.29;68.15;99460.98;1757608;81;20972;-77
2022/05/13 01:10:15;;;;;;;22.50;6.62;;;;;;;13.21;68.12;99460.48;1757401;81;21054;-77
2022/05/13 01:12:48;;;;;;;15.10;6.10;;;;;;;13.12;68.12;99466.20;1757380;81;21137;-77
2022/05/13 01:15:18;;;;;;;17.00;6.72;;;;;;;13.07;68.39;99461.13;1757460;81;21054;-77
2022/05/13 01:20:35;;;;;;;21.05;7.25;;;;;;;13.03;68.18;99462.64;1757321;81;21055;-76
2022/05/13 01:23:10;;;;;;;17.67;6.47;;;;;;;12.97;68.06;99465.95;1757720;81;21027;-77
2022/05/13 01:25:42;;;;;;;18.73;6.67;;;;;;;12.90;68.17;99463.68;1757751;81;21007;-77
2022/05/13 01:28:16;;;;;;;21.10;7.67;;;;;;;12.85;68.11;99457.28;1757863;81;21229;-76
2022/05/13 01:30:48;;;;;;;13.05;5.70;;;;;;;12.81;67.72;99468.92;1757533;81;21132;-77
2022/05/13 01:33:15;;;;;;;14.03;5.58;;;;;;;12.73;67.51;99477.64;1757571;81;21094;-77
2022/05/13 01:35:46;;;;;;;16.82;6.35;;;;;;;12.68;67.53;99466.42;1757552;81;21098;-76
2022/05/13 01:38:13;;;;;;;17.25;5.28;;;;;;;12.61;67.31;99478.56;1757392;81;21110;-77
2022/05/13 01:40:40;;;;;;;16.62;6.75;;;;;;;12.55;67.37;99474.86;1757360;81;21406;-77
2022/05/13 01:43:07;;;;;;;16.25;5.30;;;;;;;12.51;67.78;99478.57;1758383;81;21027;-77
2022/05/13 01:45:35;;;;;;;11.85;5.00;;;;;;;12.43;68.07;99476.72;1759972;81;20983;-76
2022/05/13 01:48:02;;;;;;;10.20;5.10;;;;;;;12.35;68.31;99478.35;1759961;81;21053;-77
2022/05/13 01:50:28;;;;;;;12.05;4.37;;;;;;;12.30;68.45;99482.12;1759842;81;21063;-77
2022/05/13 01:52:55;;;;;;;10.53;4.45;;;;;;;12.25;68.67;99480.55;1760049;81;21059;-77
2022/05/13 01:55:22;;;;;;;13.48;4.80;;;;;;;12.19;68.91;99480.80;1759607;81;21131;-77
2022/05/13 01:57:50;;;;;;;6.60;3.72;;;;;;;12.14;69.25;99484.09;1759648;81;21106;-77
2022/05/13 02:00:17;;;;;;;6.05;3.35;;;;;;;12.10;69.39;99486.44;1759905;81;21074;-77
2022/05/13 02:05:30;;;;;;;15.90;3.65;;;;;;;12.01;70.04;99489.47;1732186;82;21506;-77
2022/05/13 02:07:56;;;;;;;10.28;3.45;;;;;;;11.98;70.45;99496.18;1732296;82;21474;-76
2022/05/13 02:10:24;;;;;;;10.58;3.20;;;;;;;11.93;70.42;99500.31;1732157;82;21089;-77
2022/05/13 02:12:50;;;;;;;6.58;3.33;;;;;;;11.89;70.79;99496.91;1732179;82;21138;-76
2022/05/13 02:15:17;;;;;;;8.78;3.95;;;;;;;11.85;71.05;99495.34;1722734;83;21611;-77
2022/05/13 02:17:43;;;;;;;10.13;3.72;;;;;;;11.82;71.25;99496.77;1754172;81;21500;-77
2022/05/13 02:20:11;;;;;;;7.20;3.42;;;;;;;11.76;71.46;99495.69;1754095;81;21201;-77
2022/05/13 02:22:37;;;;;;;7.45;3.05;;;;;;;11.71;71.69;99492.38;1731977;82;20979;-77
2022/05/13 02:25:05;;;;;;;8.28;3.30;;;;;;;11.66;71.93;99500.92;1732526;82;21144;-77
2022/05/13 02:27:32;;;;;;;8.70;2.77;;;;;;;11.61;72.15;99504.20;1732184;82;21070;-78
2022/05/13 02:29:59;;;;;;;7.65;3.45;;;;;;;11.56;72.30;99514.06;1754215;81;21515;-78
2022/05/13 02:32:26;;;;;;;9.23;3.58;;;;;;;11.52;72.48;99510.70;1753979;81;21971;-78
2022/05/13 02:34:54;;;;;;;15.88;3.80;;;;;;;11.50;72.60;99509.44;1753822;81;21008;-76
2022/05/13 02:37:21;;;;;;;14.15;3.35;;;;;;;11.48;72.68;99513.91;1754767;80;21005;-76
2022/05/13 02:39:48;;;;;;;5.05;3.27;;;;;;;11.45;72.83;99512.70;1721773;83;21106;-78
2022/05/13 02:42:15;;;;;;;6.47;3.20;;;;;;;11.44;72.62;99513.61;1732258;82;21066;-77
2022/05/13 02:44:42;;;;;;;4.83;2.83;;;;;;;11.42;72.50;99513.28;1734435;82;21104;-78
2022/05/13 02:47:09;;;;;;;8.40;3.15;;;;;;;11.39;72.58;99510.30;1734972;82;21062;-77
2022/05/13 02:49:35;;;;;;;7.95;2.95;;;;;;;11.41;72.35;99510.23;1735113;82;21028;-77
2022/05/13 02:52:02;;;;;;;3.85;3.12;;;;;;;11.41;72.18;99518.98;1735452;82;21031;-77
2022/05/13 02:54:29;;;;;;;6.00;3.37;;;;;;;11.42;72.33;99525.14;1735269;82;21090;-78
2022/05/13 02:56:55;;;;;;;6.72;3.00;;;;;;;11.40;72.38;99525.20;1735281;82;21100;-78
2022/05/13 02:59:21;;;;;;;7.17;3.20;;;;;;;11.41;72.24;99521.63;1735603;82;21074;-77
2022/05/13 03:01:48;;;;;;;6.67;3.10;;;;;;;11.42;72.42;99524.67;1735152;82;21078;-77
2022/05/13 03:04:14;;;;;;;11.08;3.10;;;;;;;11.45;72.57;99523.24;1735505;82;21071;-77
2022/05/13 03:06:42;;;;;;;12.63;2.90;;;;;;;11.45;72.82;99525.88;1734849;82;20951;-77
2022/05/13 03:09:09;;;;;;;7.87;3.05;;;;;;;11.43;72.63;99522.89;1735289;82;21111;-77
2022/05/13 03:11:36;;;;;;;4.85;2.67;;;;;;;11.42;72.39;99528.63;1735073;82;21569;-77
2022/05/13 03:14:04;;;;;;;5.50;3.30;;;;;;;11.43;72.39;99525.09;1735359;82;21010;-78
2022/05/13 03:16:31;;;;;;;6.42;3.22;;;;;;;11.45;72.61;99531.15;1735146;82;21499;-77
2022/05/13 03:18:59;;;;;;;8.83;3.27;;;;;;;11.48;72.40;99533.67;1735309;82;21510;-77
2022/05/13 03:21:26;;;;;;;7.92;3.30;;;;;;;11.55;72.25;99537.38;1707500;82;21493;-78
2022/05/13 03:23:54;;;;;;;7.72;3.50;;;;;;;11.61;71.87;99534.51;1735103;82;21126;-77
2022/05/13 03:26:21;;;;;;;8.30;3.62;;;;;;;11.65;71.21;99541.36;1735188;82;22288;-77
2022/05/13 03:28:48;;;;;;;10.00;3.20;;;;;;;11.68;70.69;99538.62;1735190;82;20987;-77
2022/05/13 03:31:15;;;;;;;10.85;3.83;;;;;;;11.72;70.18;99544.19;1735053;82;21003;-77
2022/05/13 03:33:43;;;;;;;9.30;4.87;;;;;;;11.74;70.09;99544.98;1734871;82;21155;-77
2022/05/13 03:36:14;;;;;;;19.20;5.03;;;;;;;11.76;70.27;99545.77;1735098;82;21043;-77
2022/05/13 03:38:41;;;;;;;12.37;4.87;;;;;;;11.78;70.33;99545.24;1735535;82;21035;-78
2022/05/13 03:41:08;;;;;;;19.75;5.85;;;;;;;11.81;70.64;99550.40;1735284;82;21003;-78
2022/05/13 03:43:34;;;;;;;17.55;7.42;;;;;;;11.84;70.72;99551.61;1735111;82;21198;-76
2022/05/13 03:46:01;;;;;;;19.00;7.47;;;;;;;11.86;70.76;99556.81;1734964;82;21069;-77
2022/05/13 03:48:27;;;;;;;24.27;8.23;;;;;;;11.86;70.61;99552.39;1734827;82;21042;-76
2022/05/13 03:50:54;;;;;;;22.20;7.92;;;;;;;11.82;70.75;99552.13;1735129;82;21082;-77
2022/05/13 03:53:20;;;;;;;12.60;7.08;;;;;;;11.81;71.31;99551.72;1735304;82;21059;-77
2022/05/13 03:55:47;;;;;;;22.45;9.05;;;;;;;11.87;72.05;99554.59;1735300;82;21019;-76
2022/05/13 03:58:13;;;;;;;24.80;8.98;;;;;;;11.89;72.78;99556.23;1735499;82;21598;-77
2022/05/13 04:00:40;;;;;;;22.00;8.30;;;;;;;11.90;73.68;99556.64;1735354;82;21133;-77
2022/05/13 04:03:08;;;;;;;22.15;8.13;;;;;;;11.94;73.92;99562.69;1735380;82;21672;-77
2022/05/13 04:11:09;;;;;;;21.60;8.85;;;;;;;12.08;73.70;99570.05;1735092;82;21133;-76
2022/05/13 04:16:21;;;;;;;33.53;10.90;;;;;;;12.21;74.13;99575.22;1756817;81;21072;-76
2022/05/13 04:18:50;;;;;;;33.80;10.10;;;;;;;12.29;73.79;99572.73;1756771;81;21097;-77
2022/05/13 04:21:21;;;;;;;27.42;9.70;;;;;;;12.34;73.54;99577.35;1757132;81;22301;-77
2022/05/13 04:23:50;;;;;;;19.48;9.98;;;;;;;12.38;73.52;99578.49;1725519;82;21154;-77
2022/05/13 04:26:17;;;;;;;26.50;9.63;;;;;;;12.42;72.83;99581.86;1756988;81;21493;-77
2022/05/13 04:28:47;;;;;;;25.20;9.48;;;;;;;12.46;72.08;99586.11;1756984;81;21046;-76
2022/05/13 04:31:14;;;;;;;20.95;9.28;;;;;;;12.48;72.31;99578.98;1725745;82;21036;-77
2022/05/13 04:33:41;;;;;;;24.47;9.23;;;;;;;12.55;71.81;99577.79;1757060;81;21568;-77
2022/05/13 04:36:09;;;;;;;31.00;10.65;;;;;;;12.63;71.38;99590.68;1756606;81;20983;-77
2022/05/13 04:38:36;;;;;;;35.78;10.53;;;;;;;12.71;71.70;99588.58;1756843;81;21042;-76
2022/05/13 04:43:49;;;;;;;31.75;10.85;;;;;;;12.91;71.36;99574.53;1757079;81;21560;-76
2022/05/13 04:46:17;;;;;;;25.55;11.25;;;;;;;13.01;70.74;99581.13;1759540;81;21156;-76
2022/05/13 04:48:44;;;;;;;25.50;9.93;;;;;;;13.08;69.90;99585.67;1759242;81;21671;-76
2022/05/13 04:51:10;;;;;;;26.17;10.55;;;;;;;13.14;69.61;99581.89;1759997;81;21085;-76
2022/05/13 04:53:38;;;;;;;21.27;9.85;;;;;;;13.20;69.35;99575.03;1759780;81;21122;-76
2022/05/13 04:56:06;;;;;;;24.27;9.30;;;;;;;13.27;68.30;99587.03;1759856;81;21482;-76
2022/05/13 04:58:33;;;;;;;17.98;8.70;;;;;;;13.31;67.60;99589.07;1760113;81;21092;-75
2022/05/13 05:00:59;;;;;;;22.02;8.35;;;;;;;13.35;67.54;99588.05;1759837;81;21163;-75
2022/05/13 05:03:28;;;;;;;12.70;6.60;;;;;;;13.39;67.17;99585.66;1736751;81;21046;-76
2022/05/13 05:05:55;;;;;;;20.62;6.72;;;;;;;13.44;67.71;99591.59;1759915;81;21085;-76
2022/05/13 05:08:22;;;;;;;17.48;6.92;;;;;;;13.50;67.52;99585.16;1760132;81;21620;-75
2022/05/13 05:10:49;;;;;;;17.20;5.60;;;;;;;13.63;68.10;99586.78;1759926;81;22173;-76
2022/05/13 05:13:20;;;;;;;14.07;5.15;;;;;;;13.73;67.03;99582.34;1759919;81;21801;-76
2022/05/13 05:15:47;;;;;;;12.88;4.83;;;;;;;13.81;67.26;99584.61;1759685;81;21010;-77
2022/05/13 05:18:14;;;;;;;11.25;4.42;;;;;;;13.89;67.12;99592.20;1760177;81;21057;-76
2022/05/13 05:20:42;;;;;;;10.20;4.00;;;;;;;13.97;66.30;99592.70;1759906;81;21042;-76
2022/05/13 05:23:17;;;;;;;15.93;4.22;;;;;;;14.06;65.41;99592.72;1759995;81;21136;-75
2022/05/13 05:25:43;;;;;;;9.53;3.85;;;;;;;14.19;65.55;99591.64;1747272;81;21775;-76
2022/05/13 05:28:10;;;;;;;5.60;3.00;;;;;;;14.31;63.68;99591.06;1760137;81;21073;-76
2022/05/13 05:30:37;;;;;;;9.63;2.70;;;;;;;14.38;61.83;99584.53;1760038;81;21074;-77
2022/05/13 05:33:03;;;;;;;8.63;2.47;;;;;;;14.42;61.31;99588.73;1760030;81;20982;-76
2022/05/13 05:35:31;;;;;;;7.15;3.10;;;;;;;14.46;59.60;99582.37;1759969;81;21101;-77
2022/05/13 05:37:58;;;;;;;7.17;2.12;;;;;;;14.55;60.66;99582.84;1759801;81;21098;-78
2022/05/13 05:40:25;;;;;;;9.53;2.35;;;;;;;14.64;58.35;99575.34;1760188;81;21511;-78
2022/05/13 05:42:52;;;;;;;7.10;2.05;;;;;;;14.71;57.43;99569.70;1759762;81;21557;-75
2022/05/13 05:45:20;;;;;;;6.85;1.40;;;;;;;14.80;57.41;99580.70;1758273;81;21502;-75
2022/05/13 05:47:48;;;;;;;3.60;1.55;;;;;;;14.90;54.94;99569.64;1756601;81;21165;-76
2022/05/13 05:50:18;;;;;;;10.10;1.72;;;;;;;14.97;54.77;99574.53;1756736;81;21129;-76
2022/05/13 05:52:46;;;;;;;9.25;2.02;;;;;;;15.02;55.80;99576.95;1756825;81;21070;-76
2022/05/13 05:58:04;;;;;;;7.28;1.45;;;;;;;15.13;54.48;99575.05;1757194;81;22023;-76
2022/05/13 06:00:33;;;;;;;7.42;1.92;;;;;;;15.20;54.44;99583.94;1757122;81;21654;-75
2022/05/13 06:03:00;;;;;;;3.25;1.92;;;;;;;15.27;54.12;99587.59;1757118;81;21714;-76
2022/05/13 06:05:26;;;;;;;2.50;1.40;;;;;;;15.32;54.03;99598.33;1761281;80;21074;-77
2022/05/13 06:07:54;;;;;;;2.77;1.65;;;;;;;15.35;53.12;99598.66;1725355;83;21046;-76
2022/05/13 06:10:22;;;;;;;4.42;1.50;;;;;;;15.40;53.11;99616.50;1756730;81;21031;-76
2022/05/13 06:12:49;;;;;;;10.48;1.67;;;;;;;15.48;53.38;99614.27;1756809;81;21042;-76
2022/05/13 06:15:16;;;;;;;3.85;1.67;;;;;;;15.58;52.93;99614.19;1725693;83;21190;-75
2022/05/13 06:17:53;;;;;;;6.87;1.70;;;;;;;15.67;53.43;99616.81;1756742;81;21133;-75
2022/05/13 06:20:22;;;;;;;2.47;1.05;;;;;;;15.74;52.18;99618.19;1757096;81;21015;-76
2022/05/13 06:22:49;;;;;;;6.65;1.80;;;;;;;15.85;52.42;99614.96;1725797;83;21134;-75
2022/05/13 06:25:17;;;;;;;4.10;1.25;;;;;;;15.92;51.75;99613.70;1725389;83;21087;-77
2022/05/13 06:27:45;;;;;;;3.50;1.45;;;;;;;15.93;51.49;99614.08;1725635;83;21619;-76
2022/05/13 06:30:15;;;;;;;6.97;1.37;;;;;;;15.94;51.26;99610.48;1756879;81;21041;-76
2022/05/13 06:32:43;;;;;;;1.87;1.37;;;;;;;15.99;52.31;99616.88;1756985;81;21037;-76
2022/05/13 06:35:10;;;;;;;4.08;1.10;;;;;;;16.09;50.04;99619.88;1725890;83;21039;-76
2022/05/13 06:37:37;;;;;;;5.00;1.95;;;;;;;16.08;50.68;99622.14;1725865;83;21094;-75
2022/05/13 06:40:07;;;;;;;5.20;1.02;;;;;;;16.12;50.04;99614.38;1757045;81;21109;-76
2022/05/13 06:42:33;;;;;;;4.25;1.00;;;;;;;16.23;50.89;99619.95;1757085;81;20993;-75
2022/05/13 06:45:00;;;;;;;8.48;1.12;;;;;;;16.40;50.64;99623.45;1725753;83;21044;-75
2022/05/13 06:47:27;;;;;;;3.37;1.10;;;;;;;16.50;50.58;99610.03;1709168;83;21024;-77
2022/05/13 06:49:54;;;;;;;5.08;0.90;;;;;;;16.53;48.98;99605.88;1756968;81;21078;-76
2022/05/13 06:52:20;;;;;;;4.92;1.50;;;;;;;16.50;47.88;99612.20;1756121;81;21089;-75
2022/05/13 06:54:47;;;;;;;1.90;1.00;;;;;;;16.53;48.33;99605.88;1756714;81;21069;-77
2022/05/13 06:57:13;;;;;;;7.95;1.20;;;;;;;16.58;48.16;99615.75;1756984;81;21042;-75
2022/05/13 06:59:41;;;;;;;2.75;1.20;;;;;;;16.62;49.10;99605.32;1756629;81;21018;-74
2022/05/13 07:02:07;;;;;;;7.28;1.30;;;;;;;16.64;47.88;99614.08;1757163;81;21013;-76
2022/05/13 07:04:34;;;;;;;3.10;1.15;;;;;;;16.61;49.05;99614.25;1756861;81;21850;-76
2022/05/13 07:07:01;;;;;;;6.08;1.60;;;;;;;16.58;48.80;99613.58;1756808;81;21615;-77
2022/05/13 07:09:27;;;;;;;3.87;1.32;;;;;;;16.64;49.86;99614.08;1757014;81;21892;-75
2022/05/13 07:11:54;;;;;;;6.95;1.65;;;;;;;16.71;48.52;99614.58;1757038;81;21012;-76
2022/05/13 07:14:21;;;;;;;3.17;1.37;;;;;;;16.73;48.67;99612.69;1757055;81;21501;-76
2022/05/13 07:16:49;;;;;;;2.58;1.15;;;;;;;16.76;48.56;99617.83;1756746;81;21128;-76
2022/05/13 07:19:16;;;;;;;9.25;2.02;;;;;;;16.83;47.56;99622.30;1757136;81;21133;-77
2022/05/13 07:21:42;;;;;;;3.92;0.98;;;;;;;16.91;48.09;99617.40;1756707;81;21077;-76
2022/05/13 07:24:09;;;;;;;2.60;0.70;;;;;;;17.00;46.63;99610.22;1756830;81;21078;-77
2022/05/13 07:26:36;;;;;;;6.33;1.27;;;;;;;17.12;46.20;99615.76;1756729;81;20994;-77
2022/05/13 07:29:04;;;;;;;7.53;1.40;;;;;;;17.25;47.12;99619.39;1756783;81;21534;-76
2022/05/13 07:31:33;;;;;;;4.67;1.32;;;;;;;17.41;47.14;99624.12;1756871;81;21033;-76
2022/05/13 07:34:00;;;;;;;4.80;1.50;;;;;;;17.48;45.74;99617.11;1756807;81;21692;-76
2022/05/13 07:36:27;;;;;;;5.90;2.08;;;;;;;17.54;45.11;99619.41;1729036;81;21034;-76
2022/05/13 07:41:41;;;;;;;3.55;1.00;;;;;;;17.55;44.20;99625.97;1756754;81;21132;-76
2022/05/13 07:44:10;;;;;;;4.22;0.90;;;;;;;17.53;44.14;99616.36;1756837;81;21532;-76
2022/05/13 07:46:38;;;;;;;5.35;2.77;;;;;;;17.51;43.06;99620.92;1756918;81;21571;-75
2022/05/13 07:49:06;;;;;;;3.58;1.60;;;;;;;17.36;44.33;99621.38;1757460;81;21065;-76
2022/05/13 07:51:34;;;;;;;2.90;1.10;;;;;;;17.23;45.92;99622.14;1756944;81;21015;-75
2022/05/13 07:54:01;;;;;;;2.25;1.42;;;;;;;17.22;45.71;99626.22;1757007;81;21114;-76
2022/05/13 07:56:27;;;;;;;5.15;0.88;;;;;;;17.20;46.27;99630.78;1756997;81;20998;-74
2022/05/13 07:58:53;;;;;;;6.87;1.10;;;;;;;17.14;44.17;99639.96;1756931;81;21069;-75
2022/05/13 08:01:20;;;;;;;2.12;0.90;;;;;;;16.99;45.89;99639.06;1757064;81;21074;-75
2022/05/13 08:03:49;;;;;;;4.05;1.65;;;;;;;16.92;45.31;99632.41;1757152;81;21079;-76
2022/05/13 08:06:15;;;;;;;3.33;1.70;;;;;;;16.84;45.47;99634.63;1761440;80;21826;-76
2022/05/13 08:08:45;;;;;;;7.00;1.82;;;;;;;16.79;46.25;99630.05;1725283;83;20987;-75
2022/05/13 08:11:14;;;;;;;3.80;1.47;;;;;;;16.76;47.08;99627.58;1725526;83;21110;-76
2022/05/13 08:13:41;;;;;;;2.15;0.80;;;;;;;16.83;46.66;99632.94;1757273;81;21187;-76
2022/05/13 08:16:11;;;;;;;3.17;0.80;;;;;;;16.89;46.15;99636.57;1756985;81;21124;-76
2022/05/13 08:18:39;;;;;;;5.17;1.30;;;;;;;16.95;45.50;99630.91;1756909;81;21610;-76
2022/05/13 08:21:06;;;;;;;4.28;0.80;;;;;;;17.02;45.57;99627.41;1725574;82;21099;-75
2022/05/13 08:23:33;;;;;;;3.00;1.00;;;;;;;17.17;44.82;99625.64;1757038;81;21065;-76
2022/05/13 08:25:59;;;;;;;2.00;0.78;;;;;;;17.28;44.31;99620.51;1756740;81;21631;-76
2022/05/13 08:28:26;;;;;;;2.00;0.90;;;;;;;17.30;44.78;99627.06;1725361;83;21145;-75
2022/05/13 08:30:52;;;;;;;1.12;0.80;;;;;;;17.33;44.38;99643.72;1757281;81;21104;-76
2022/05/13 08:33:20;;;;;;;5.20;0.75;;;;;;;17.22;44.26;99632.38;1757024;81;21049;-75
2022/05/13 08:35:52;;;;;;;2.83;1.00;;;;;;;17.13;44.20;99628.08;1726070;82;21008;-75
2022/05/13 08:38:25;;;;;;;7.08;0.85;;;;;;;17.09;45.97;99625.61;1725729;83;21055;-76
2022/05/13 08:41:03;;;;;;;1.77;0.72;;;;;;;17.14;45.20;99619.17;1725945;83;21027;-75
2022/05/13 08:43:37;;;;;;;1.98;0.70;;;;;;;17.25;44.58;99640.18;1755865;81;21545;-75
2022/05/13 08:46:18;;;;;;;6.00;1.00;;;;;;;17.34;44.01;99626.80;1733999;82;21067;-76
2022/05/13 08:49:30;;;;;;;6.65;0.95;;;;;;;17.37;44.50;99633.27;1735764;82;21101;-74
2022/05/13 08:53:06;;;;;;;3.35;0.80;;;;;;;17.35;43.88;99633.84;1735630;82;21016;-76
2022/05/13 08:54:39;;;;;;;1.77;0.60;;;;;;;17.31;44.24;99619.00;1735483;82;21124;-76
2022/05/13 08:57:09;;;;;;;1.22;0.80;;;;;;;17.37;44.66;99623.95;1735964;82;21566;-75
2022/05/13 08:59:54;;;;;;;2.90;1.05;;;;;;;17.42;44.19;99616.55;1735540;82;21134;-76
2022/05/13 09:02:39;;;;;;;5.47;0.90;;;;;;;17.44;44.63;99613.80;1735806;82;21110;-76
2022/05/13 09:05:28;;;;;;;1.75;0.80;;;;;;;17.57;44.21;99611.24;1736089;82;28216;-75
2022/05/13 09:07:55;;;;;;;1.55;0.90;;;;;;;17.79;45.02;99605.42;1714022;82;20995;-75
2022/05/13 09:10:24;;;;;;;3.27;0.80;;;;;;;18.04;45.20;99599.42;1735564;82;21096;-76
2022/05/13 09:13:20;;;;;;;6.17;1.00;;;;;;;18.22;43.37;99604.51;1735854;82;21047;-74
2022/05/13 09:15:52;;;;;;;3.77;1.07;;;;;;;18.23;42.62;99602.23;1735909;82;21058;-76
2022/05/13 09:18:30;;;;;;;4.97;1.00;;;;;;;18.09;41.42;99595.99;1736049;82;21561;-76
2022/05/13 09:20:58;;;;;;;3.50;1.00;;;;;;;18.00;42.31;99587.25;1735631;82;21644;-76
2022/05/13 09:23:25;;;;;;;4.28;1.20;;;;;;;18.06;41.92;99587.35;1735875;82;21172;-76
2022/05/13 09:26:03;;;;;;;3.65;1.02;;;;;;;18.16;42.71;99590.64;1735339;82;21332;-76
2022/05/13 09:28:33;;;;;;;4.40;1.20;;;;;;;18.37;42.02;99592.84;1735707;82;21063;-76
2022/05/13 09:31:17;;;;;;;5.80;0.93;;;;;;;18.51;42.56;99593.30;1735612;82;21078;-76
2022/05/13 09:33:46;;;;;;;6.55;1.27;;;;;;;18.55;41.41;99592.11;1735545;82;21043;-76
2022/05/13 09:36:27;;;;;;;6.50;1.40;;;;;;;18.52;40.75;99596.31;1735711;82;21735;-74
2022/05/13 09:39:02;;;;;;;9.55;1.92;;;;;;;18.30;41.20;99596.87;1735865;82;21014;-75
2022/05/13 09:41:33;;;;;;;7.87;1.55;;;;;;;18.03;41.69;99600.37;1733312;82;21023;-77
2022/05/13 09:44:23;;;;;;;3.20;1.40;;;;;;;17.83;42.78;99591.80;1736095;82;21063;-76
2022/05/13 09:47:08;;;;;;;7.10;1.65;;;;;;;17.79;44.10;99592.97;1735603;82;21121;-75
2022/05/13 09:49:39;;;;;;;3.55;1.17;;;;;;;17.92;43.96;99577.56;1733748;82;21791;-76
2022/05/13 09:52:35;;;;;;;5.72;1.22;;;;;;;18.20;43.93;99572.16;1735770;82;21011;-76
2022/05/13 09:55:27;;;;;;;6.85;0.98;;;;;;;18.45;41.67;99565.22;1735704;82;21117;-75
2022/05/13 09:57:54;;;;;;;3.17;0.82;;;;;;;18.56;42.12;99585.36;1735492;82;21048;-75
2022/05/13 10:00:37;;;;;;;2.98;0.95;;;;;;;18.70;40.44;99578.25;1722797;82;21148;-75
2022/05/13 10:03:19;;;;;;;1.00;0.70;;;;;;;18.79;40.20;99580.27;1687731;83;21129;-75
2022/05/13 10:06:15;;;;;;;4.75;0.98;;;;;;;18.73;40.31;99599.37;1709558;83;21114;-75
2022/05/13 10:08:54;;;;;;;6.15;0.72;;;;;;;18.71;40.96;99576.81;1708521;83;21082;-76
2022/05/13 10:14:38;;;;;;;4.67;0.80;;;;;;;18.42;40.52;99575.23;1709516;83;21089;-75
2022/05/13 10:17:18;;;;;;;0.88;0.50;;;;;;;18.37;40.87;99579.53;1660217;83;21160;-75
2022/05/13 10:19:57;;;;;;;4.65;0.90;;;;;;;18.47;41.20;99572.63;1709499;83;21148;-75
2022/05/13 10:22:46;;;;;;;7.67;0.75;;;;;;;18.61;40.76;99565.53;1710147;83;21628;-75
2022/05/13 10:25:32;;;;;;;0.82;0.70;;;;;;;18.67;39.67;99565.97;1709736;83;21145;-76
2022/05/13 10:28:15;;;;;;;8.58;0.57;;;;;;;18.64;39.55;99549.34;1709083;83;21108;-76
2022/05/13 10:31:03;;;;;;;3.75;0.78;;;;;;;18.61;39.57;99558.86;1709439;83;21712;-75
2022/05/13 10:34:03;;;;;;;1.45;0.82;;;;;;;18.68;39.83;99545.52;1709702;83;20997;-75
2022/05/13 10:36:51;;;;;;;2.95;0.90;;;;;;;18.73;38.56;99555.39;1681930;83;21057;-75
2022/05/13 10:39:30;;;;;;;2.47;0.60;;;;;;;18.61;38.71;99564.19;1709476;83;21619;-77
2022/05/13 10:42:03;;;;;;;1.57;0.65;;;;;;;18.57;37.49;99552.41;1716680;82;21132;-75
2022/05/13 10:44:57;;;;;;;5.10;0.70;;;;;;;18.61;37.69;99552.20;1714288;82;21131;-75
2022/05/13 10:47:44;;;;;;;4.30;0.80;;;;;;;18.65;37.38;99540.40;1748907;81;21925;-76
2022/05/13 10:50:21;;;;;;;1.40;0.75;;;;;;;18.79;38.02;99542.11;1752688;81;21472;-76
2022/05/13 10:53:16;;;;;;;3.20;1.20;;;;;;;19.06;37.89;99536.72;1752667;81;21643;-75
2022/05/13 10:55:52;;;;;;;;;;;;;;;19.25;36.00;99557.16;1755045;81;21590;-75
2022/05/13 10:58:42;;;;;;;6.62;0.90;;;;;;;19.18;37.24;99545.22;1752795;81;21252;-76
2022/05/13 11:01:32;;;;;;;6.85;0.80;;;;;;;19.16;37.69;99525.78;1752426;81;21055;-75
2022/05/13 11:04:11;;;;;;;1.07;0.70;;;;;;;19.23;38.46;99519.08;1724026;81;21077;-75
2022/05/13 11:06:52;;;;;;;2.77;0.60;;;;;;;19.29;37.86;99521.29;1752252;81;21094;-76
2022/05/13 11:09:37;;;;;;;3.15;0.68;;;;;;;19.29;37.82;99522.63;1752182;81;20983;-74
2022/05/13 11:12:30;;;;;;;4.03;0.70;;;;;;;19.28;37.63;99530.27;1752486;81;21131;-75
2022/05/13 11:15:33;;;;;;;3.52;0.70;;;;;;;19.17;37.05;99522.16;1752556;81;21016;-76
2022/05/13 11:18:22;;;;;;;3.35;0.70;;;;;;;19.05;36.88;99508.37;1752108;81;21118;-74
2022/05/13 11:21:02;;;;;;;2.65;0.70;;;;;;;19.05;38.05;99533.70;1684222;81;21027;-75
2022/05/13 11:27:29;;;;;;;1.55;0.72;;;;;;;19.14;37.16;99512.20;1752107;81;21196;-75
2022/05/13 11:30:18;;;;;;;5.87;1.05;;;;;;;19.26;37.12;99500.16;1728093;81;21462;-75
2022/05/13 11:32:59;;;;;;;2.85;0.70;;;;;;;19.30;36.35;99491.00;1752426;81;21074;-75
2022/05/13 11:35:41;;;;;;;8.83;0.80;;;;;;;19.27;36.56;99495.20;1752284;81;21084;-76
2022/05/13 11:38:19;;;;;;;3.40;0.88;;;;;;;19.32;37.05;99489.55;1752258;81;21554;-75
2022/05/13 11:41:04;;;;;;;1.47;0.60;;;;;;;19.34;36.84;99492.11;1748813;81;21138;-77
2022/05/13 11:43:46;;;;;;;2.02;0.75;;;;;;;19.31;36.63;99487.83;1751965;81;21047;-77
2022/05/13 11:46:48;;;;;;;3.60;0.80;;;;;;;19.30;36.35;99484.81;1749356;81;21048;-76
2022/05/13 11:49:23;;;;;;;1.37;0.65;;;;;;;19.36;35.67;99477.69;1735863;82;21106;-76
2022/05/13 11:51:50;;;;;;;4.35;0.80;;;;;;;19.39;35.76;99481.97;1735649;82;21818;-75
2022/05/13 11:54:24;;;;;;;4.33;0.80;;;;;;;19.43;36.54;99472.76;1735578;82;21093;-75
2022/05/13 11:57:25;;;;;;;3.98;0.80;;;;;;;19.54;36.02;99475.52;1735544;82;21047;-75
2022/05/13 12:00:20;;;;;;;2.85;0.90;;;;;;;19.61;35.84;99469.25;1735972;82;21007;-75
2022/05/13 12:02:56;;;;;;;2.30;0.53;;;;;;;19.75;35.42;99466.44;1735634;82;21042;-76
2022/05/13 12:05:26;;;;;;;3.67;0.95;;;;;;;19.81;35.76;99471.34;1735849;82;21589;-76
2022/05/13 12:08:17;;;;;;;3.17;0.85;;;;;;;19.91;36.05;99468.84;1732369;82;22337;-75
2022/05/13 12:11:21;;;;;;;7.28;1.25;;;;;;;20.01;34.65;99483.21;1732334;82;21065;-74
2022/05/13 12:14:39;;;;;;;9.85;1.45;;;;;;;19.93;33.86;99478.92;1732299;82;21121;-75
2022/05/13 12:17:32;;;;;;;3.52;0.80;;;;;;;19.86;35.10;99478.52;1732481;82;21059;-75
2022/05/13 12:20:30;;;;;;;3.45;0.70;;;;;;;19.91;34.65;99466.17;1732416;82;21538;-76
2022/05/13 12:23:23;;;;;;;7.45;0.80;;;;;;;19.89;34.62;99459.23;1732217;82;21156;-75